sensor_id;sensor_type;location;lat;lon;timestamp;pressure;altitude;pressure_sealevel;temperature;humidity
64792;BME280;51226;47.504;19.074;2024-02-21T00:02:12;101037.16;;;10.44;62.06
64792;BME280;51226;47.504;19.074;2024-02-21T00:05:15;101038.41;;;10.34;62.34
64792;BME280;51226;47.504;19.074;2024-02-21T00:08:17;101030.84;;;10.38;61.85
64792;BME280;51226;47.504;19.074;2024-02-21T00:11:21;101030.56;;;10.32;62.01
64792;BME280;51226;47.504;19.074;2024-02-21T00:14:24;101034.84;;;10.32;62.02
64792;BME280;51226;47.504;19.074;2024-02-21T00:17:27;101029.78;;;10.35;61.80
64792;BME280;51226;47.504;19.074;2024-02-21T00:20:29;101029.34;;;10.44;61.41
64792;BME280;51226;47.504;19.074;2024-02-21T00:23:33;101025.47;;;10.53;60.68
64792;BME280;51226;47.504;19.074;2024-02-21T00:26:38;101017.63;;;10.35;61.26
64792;BME280;51226;47.504;19.074;2024-02-21T00:29:41;101017.56;;;10.34;61.58
64792;BME280;51226;47.504;19.074;2024-02-21T00:32:43;101015.34;;;10.42;61.34
64792;BME280;51226;47.504;19.074;2024-02-21T00:35:46;101010.34;;;10.46;61.29
64792;BME280;51226;47.504;19.074;2024-02-21T00:38:49;101008.59;;;10.29;61.75
64792;BME280;51226;47.504;19.074;2024-02-21T00:41:52;101002.66;;;10.31;61.92
64792;BME280;51226;47.504;19.074;2024-02-21T00:44:55;101003.56;;;10.32;61.83
64792;BME280;51226;47.504;19.074;2024-02-21T00:47:58;100998.34;;;10.32;61.78
64792;BME280;51226;47.504;19.074;2024-02-21T00:51:01;100995.09;;;10.36;61.48
64792;BME280;51226;47.504;19.074;2024-02-21T00:54:04;100991.84;;;10.24;61.87
64792;BME280;51226;47.504;19.074;2024-02-21T00:57:06;100995.47;;;10.27;61.80
64792;BME280;51226;47.504;19.074;2024-02-21T01:00:09;100997.34;;;10.30;61.82
64792;BME280;51226;47.504;19.074;2024-02-21T01:03:12;101001.28;;;10.38;61.02
64792;BME280;51226;47.504;19.074;2024-02-21T01:06:15;100992.06;;;10.28;60.81
64792;BME280;51226;47.504;19.074;2024-02-21T01:09:17;100997.16;;;10.43;59.80
64792;BME280;51226;47.504;19.074;2024-02-21T01:12:20;100993.03;;;10.30;59.81
64792;BME280;51226;47.504;19.074;2024-02-21T01:15:23;100992.44;;;10.18;59.96
64792;BME280;51226;47.504;19.074;2024-02-21T01:18:26;101005.06;;;10.10;59.97
64792;BME280;51226;47.504;19.074;2024-02-21T01:21:28;100993.72;;;10.26;59.01
64792;BME280;51226;47.504;19.074;2024-02-21T01:24:31;100995.34;;;10.24;58.93
64792;BME280;51226;47.504;19.074;2024-02-21T01:27:34;100989.03;;;10.19;59.14
64792;BME280;51226;47.504;19.074;2024-02-21T01:30:36;100992.34;;;10.16;59.26
64792;BME280;51226;47.504;19.074;2024-02-21T01:33:39;100991.31;;;10.13;59.05
64792;BME280;51226;47.504;19.074;2024-02-21T01:36:42;100989.06;;;10.02;59.51
64792;BME280;51226;47.504;19.074;2024-02-21T01:39:44;100987.19;;;10.00;59.75
64792;BME280;51226;47.504;19.074;2024-02-21T01:42:47;100990.19;;;10.08;59.24
64792;BME280;51226;47.504;19.074;2024-02-21T01:45:52;100981.47;;;10.07;59.15
64792;BME280;51226;47.504;19.074;2024-02-21T01:48:56;100976.56;;;10.13;59.13
64792;BME280;51226;47.504;19.074;2024-02-21T01:52:00;100981.78;;;10.13;59.24
64792;BME280;51226;47.504;19.074;2024-02-21T01:55:03;100983.56;;;10.14;59.30
64792;BME280;51226;47.504;19.074;2024-02-21T01:58:07;100983.25;;;10.08;59.54
64792;BME280;51226;47.504;19.074;2024-02-21T02:01:10;100982.81;;;9.99;59.98
64792;BME280;51226;47.504;19.074;2024-02-21T02:04:13;100973.72;;;10.09;59.88
64792;BME280;51226;47.504;19.074;2024-02-21T02:07:16;100970.59;;;9.98;60.38
64792;BME280;51226;47.504;19.074;2024-02-21T02:10:19;100978.50;;;9.99;60.42
64792;BME280;51226;47.504;19.074;2024-02-21T02:13:22;100971.25;;;9.94;60.66
64792;BME280;51226;47.504;19.074;2024-02-21T02:16:25;100962.53;;;9.93;60.89
64792;BME280;51226;47.504;19.074;2024-02-21T02:19:27;100969.72;;;9.97;60.76
64792;BME280;51226;47.504;19.074;2024-02-21T02:22:30;100967.44;;;9.87;61.08
64792;BME280;51226;47.504;19.074;2024-02-21T02:25:35;100966.41;;;9.83;61.25
64792;BME280;51226;47.504;19.074;2024-02-21T02:28:38;100964.19;;;9.91;61.17
64792;BME280;51226;47.504;19.074;2024-02-21T02:31:40;100958.59;;;9.83;61.15
64792;BME280;51226;47.504;19.074;2024-02-21T02:34:43;100956.56;;;9.78;61.41
64792;BME280;51226;47.504;19.074;2024-02-21T02:37:49;100968.03;;;9.81;61.40
64792;BME280;51226;47.504;19.074;2024-02-21T02:40:53;100973.59;;;9.71;61.81
64792;BME280;51226;47.504;19.074;2024-02-21T02:43:55;100967.09;;;9.63;62.15
64792;BME280;51226;47.504;19.074;2024-02-21T02:46:59;100972.25;;;9.45;62.72
64792;BME280;51226;47.504;19.074;2024-02-21T02:50:01;100966.69;;;9.55;62.71
64792;BME280;51226;47.504;19.074;2024-02-21T02:53:05;100968.41;;;9.55;62.70
64792;BME280;51226;47.504;19.074;2024-02-21T02:56:07;100967.53;;;9.54;62.66
64792;BME280;51226;47.504;19.074;2024-02-21T02:59:16;100956.38;;;9.57;62.74
64792;BME280;51226;47.504;19.074;2024-02-21T03:02:18;100962.50;;;9.57;62.80
64792;BME280;51226;47.504;19.074;2024-02-21T03:05:21;100961.94;;;9.46;62.92
64792;BME280;51226;47.504;19.074;2024-02-21T03:08:24;100966.34;;;9.48;63.01
64792;BME280;51226;47.504;19.074;2024-02-21T03:11:27;100960.00;;;9.42;63.00
64792;BME280;51226;47.504;19.074;2024-02-21T03:14:32;100965.53;;;9.32;63.23
64792;BME280;51226;47.504;19.074;2024-02-21T03:17:35;100970.06;;;9.36;62.96
64792;BME280;51226;47.504;19.074;2024-02-21T03:20:38;100965.66;;;9.35;62.77
64792;BME280;51226;47.504;19.074;2024-02-21T03:23:40;100974.47;;;9.37;62.28
64792;BME280;51226;47.504;19.074;2024-02-21T03:26:44;100978.78;;;9.37;62.07
64792;BME280;51226;47.504;19.074;2024-02-21T03:29:46;100977.97;;;9.38;62.04
64792;BME280;51226;47.504;19.074;2024-02-21T03:32:49;100984.97;;;9.39;61.64
64792;BME280;51226;47.504;19.074;2024-02-21T03:35:52;100978.69;;;9.35;61.96
64792;BME280;51226;47.504;19.074;2024-02-21T03:38:54;100979.69;;;9.37;61.84
64792;BME280;51226;47.504;19.074;2024-02-21T03:41:58;100981.06;;;9.31;62.18
64792;BME280;51226;47.504;19.074;2024-02-21T03:45:03;100976.16;;;9.37;61.72
64792;BME280;51226;47.504;19.074;2024-02-21T03:48:06;100985.16;;;9.25;62.23
64792;BME280;51226;47.504;19.074;2024-02-21T03:51:09;100980.16;;;9.30;61.98
64792;BME280;51226;47.504;19.074;2024-02-21T03:54:12;100982.22;;;9.36;61.63
64792;BME280;51226;47.504;19.074;2024-02-21T03:57:14;100981.88;;;9.30;61.75
64792;BME280;51226;47.504;19.074;2024-02-21T04:00:17;100980.25;;;9.32;61.84
64792;BME280;51226;47.504;19.074;2024-02-21T04:03:20;100982.47;;;9.24;62.05
64792;BME280;51226;47.504;19.074;2024-02-21T04:06:23;100983.00;;;9.18;62.12
64792;BME280;51226;47.504;19.074;2024-02-21T04:09:25;100983.59;;;9.29;61.79
64792;BME280;51226;47.504;19.074;2024-02-21T04:12:28;100986.44;;;9.17;62.12
64792;BME280;51226;47.504;19.074;2024-02-21T04:15:31;100984.38;;;9.12;62.23
64792;BME280;51226;47.504;19.074;2024-02-21T04:18:34;100981.78;;;9.12;62.39
64792;BME280;51226;47.504;19.074;2024-02-21T04:21:36;100978.56;;;9.16;62.63
64792;BME280;51226;47.504;19.074;2024-02-21T04:24:39;100977.34;;;9.09;62.77
64792;BME280;51226;47.504;19.074;2024-02-21T04:27:42;100978.38;;;8.96;63.47
64792;BME280;51226;47.504;19.074;2024-02-21T04:30:44;100985.91;;;8.92;63.79
64792;BME280;51226;47.504;19.074;2024-02-21T04:33:47;100976.88;;;8.85;63.99
64792;BME280;51226;47.504;19.074;2024-02-21T04:36:50;100978.50;;;8.83;64.42
64792;BME280;51226;47.504;19.074;2024-02-21T04:39:52;100983.06;;;8.87;64.39
64792;BME280;51226;47.504;19.074;2024-02-21T04:42:55;100974.84;;;8.79;64.67
64792;BME280;51226;47.504;19.074;2024-02-21T04:45:58;100974.50;;;8.73;65.05
64792;BME280;51226;47.504;19.074;2024-02-21T04:49:00;100973.31;;;8.51;65.83
64792;BME280;51226;47.504;19.074;2024-02-21T04:52:03;100977.62;;;8.36;66.39
64792;BME280;51226;47.504;19.074;2024-02-21T04:55:06;100971.28;;;8.46;66.15
64792;BME280;51226;47.504;19.074;2024-02-21T04:58:09;100976.94;;;8.39;66.35
64792;BME280;51226;47.504;19.074;2024-02-21T05:01:12;100978.09;;;8.29;66.61
64792;BME280;51226;47.504;19.074;2024-02-21T05:04:15;100986.25;;;8.20;66.93
64792;BME280;51226;47.504;19.074;2024-02-21T05:07:18;100985.91;;;8.29;66.82
64792;BME280;51226;47.504;19.074;2024-02-21T05:10:22;100993.44;;;8.24;67.03
64792;BME280;51226;47.504;19.074;2024-02-21T05:13:24;100986.00;;;8.30;66.82
64792;BME280;51226;47.504;19.074;2024-02-21T05:16:28;100994.22;;;8.23;67.24
64792;BME280;51226;47.504;19.074;2024-02-21T05:19:31;100994.22;;;8.23;67.15
64792;BME280;51226;47.504;19.074;2024-02-21T05:22:33;100987.16;;;8.21;67.09
64792;BME280;51226;47.504;19.074;2024-02-21T05:25:36;100980.81;;;8.15;67.27
64792;BME280;51226;47.504;19.074;2024-02-21T05:28:39;100986.22;;;8.04;67.56
64792;BME280;51226;47.504;19.074;2024-02-21T05:34:54;100973.13;;;8.02;67.87
64792;BME280;51226;47.504;19.074;2024-02-21T05:37:57;100973.03;;;8.01;67.94
64792;BME280;51226;47.504;19.074;2024-02-21T05:41:00;100970.88;;;7.93;68.25
64792;BME280;51226;47.504;19.074;2024-02-21T05:44:03;100977.31;;;8.15;67.49
64792;BME280;51226;47.504;19.074;2024-02-21T05:47:05;100973.31;;;8.05;67.82
64792;BME280;51226;47.504;19.074;2024-02-21T05:50:12;100978.31;;;8.02;68.07
64792;BME280;51226;47.504;19.074;2024-02-21T05:53:15;100975.44;;;8.12;67.58
64792;BME280;51226;47.504;19.074;2024-02-21T05:56:19;100990.47;;;8.03;67.97
64792;BME280;51226;47.504;19.074;2024-02-21T05:59:21;100989.59;;;8.03;68.11
64792;BME280;51226;47.504;19.074;2024-02-21T06:02:24;100994.78;;;8.18;67.40
64792;BME280;51226;47.504;19.074;2024-02-21T06:05:26;100997.88;;;8.27;67.03
64792;BME280;51226;47.504;19.074;2024-02-21T06:08:30;100996.91;;;8.40;66.52
64792;BME280;51226;47.504;19.074;2024-02-21T06:11:32;100996.91;;;8.40;66.40
64792;BME280;51226;47.504;19.074;2024-02-21T06:14:35;101006.03;;;8.33;66.76
64792;BME280;51226;47.504;19.074;2024-02-21T06:17:39;100995.28;;;8.27;67.09
64792;BME280;51226;47.504;19.074;2024-02-21T06:20:42;100994.94;;;8.35;66.87
64792;BME280;51226;47.504;19.074;2024-02-21T06:23:45;100986.59;;;8.41;66.65
64792;BME280;51226;47.504;19.074;2024-02-21T06:26:48;100985.16;;;8.46;66.26
64792;BME280;51226;47.504;19.074;2024-02-21T06:29:51;100986.22;;;8.50;66.02
64792;BME280;51226;47.504;19.074;2024-02-21T06:32:54;100992.09;;;8.46;66.25
64792;BME280;51226;47.504;19.074;2024-02-21T06:35:58;101002.66;;;8.49;66.12
64792;BME280;51226;47.504;19.074;2024-02-21T06:39:01;101005.78;;;8.43;66.56
64792;BME280;51226;47.504;19.074;2024-02-21T06:42:04;101011.44;;;8.51;66.19
64792;BME280;51226;47.504;19.074;2024-02-21T06:45:07;101011.88;;;8.59;65.91
64792;BME280;51226;47.504;19.074;2024-02-21T06:48:10;101012.09;;;8.63;65.99
64792;BME280;51226;47.504;19.074;2024-02-21T06:51:12;101006.78;;;8.77;65.28
64792;BME280;51226;47.504;19.074;2024-02-21T06:54:15;101009.91;;;8.86;64.86
64792;BME280;51226;47.504;19.074;2024-02-21T06:57:18;101007.16;;;8.99;63.79
64792;BME280;51226;47.504;19.074;2024-02-21T07:00:21;101011.25;;;9.11;63.43
64792;BME280;51226;47.504;19.074;2024-02-21T07:03:26;101006.25;;;9.15;63.47
64792;BME280;51226;47.504;19.074;2024-02-21T07:06:29;101012.06;;;9.26;62.95
64792;BME280;51226;47.504;19.074;2024-02-21T07:09:38;101017.72;;;9.35;62.91
64792;BME280;51226;47.504;19.074;2024-02-21T07:12:41;101012.06;;;9.59;61.34
64792;BME280;51226;47.504;19.074;2024-02-21T07:15:46;101016.84;;;9.68;61.10
64792;BME280;51226;47.504;19.074;2024-02-21T07:18:48;101019.53;;;9.87;60.13
64792;BME280;51226;47.504;19.074;2024-02-21T07:21:51;101023.69;;;10.00;59.56
64792;BME280;51226;47.504;19.074;2024-02-21T07:24:54;101020.28;;;10.01;59.98
64792;BME280;51226;47.504;19.074;2024-02-21T07:27:57;101024.69;;;10.20;59.83
64792;BME280;51226;47.504;19.074;2024-02-21T07:31:01;101038.88;;;10.43;58.65
64792;BME280;51226;47.504;19.074;2024-02-21T07:34:03;101045.66;;;10.75;57.62
64792;BME280;51226;47.504;19.074;2024-02-21T07:37:06;101037.78;;;11.11;56.73
64792;BME280;51226;47.504;19.074;2024-02-21T07:40:12;101045.75;;;11.34;56.27
64792;BME280;51226;47.504;19.074;2024-02-21T07:43:15;101039.66;;;11.53;54.98
64792;BME280;51226;47.504;19.074;2024-02-21T07:46:18;101040.53;;;11.73;54.59
64792;BME280;51226;47.504;19.074;2024-02-21T07:49:22;101045.16;;;11.98;53.31
64792;BME280;51226;47.504;19.074;2024-02-21T07:52:25;101042.22;;;12.12;53.08
64792;BME280;51226;47.504;19.074;2024-02-21T07:55:28;101035.84;;;12.47;52.63
64792;BME280;51226;47.504;19.074;2024-02-21T07:58:31;101040.84;;;14.04;49.65
64792;BME280;51226;47.504;19.074;2024-02-21T08:01:34;101033.34;;;18.81;38.21
64792;BME280;51226;47.504;19.074;2024-02-21T08:04:41;101032.53;;;22.52;31.39
64792;BME280;51226;47.504;19.074;2024-02-21T08:07:43;101020.84;;;23.29;29.71
64792;BME280;51226;47.504;19.074;2024-02-21T08:10:46;101022.63;;;24.65;28.35
64792;BME280;51226;47.504;19.074;2024-02-21T08:13:49;101014.00;;;26.91;24.72
64792;BME280;51226;47.504;19.074;2024-02-21T08:16:52;101023.22;;;28.04;23.19
64792;BME280;51226;47.504;19.074;2024-02-21T08:19:55;101011.41;;;27.33;23.67
64792;BME280;51226;47.504;19.074;2024-02-21T08:22:58;101000.41;;;27.02;23.88
64792;BME280;51226;47.504;19.074;2024-02-21T08:26:04;101003.06;;;27.47;23.33
64792;BME280;51226;47.504;19.074;2024-02-21T08:29:07;100996.87;;;28.22;22.67
64792;BME280;51226;47.504;19.074;2024-02-21T08:32:10;101004.19;;;28.84;21.60
64792;BME280;51226;47.504;19.074;2024-02-21T08:35:13;101001.31;;;27.85;22.50
64792;BME280;51226;47.504;19.074;2024-02-21T08:38:18;101009.78;;;27.67;23.07
64792;BME280;51226;47.504;19.074;2024-02-21T08:41:23;101002.00;;;27.95;22.23
64792;BME280;51226;47.504;19.074;2024-02-21T08:44:44;101003.25;;;28.85;21.76
64792;BME280;51226;47.504;19.074;2024-02-21T08:47:47;101000.84;;;31.48;19.86
64792;BME280;51226;47.504;19.074;2024-02-21T08:50:49;100986.97;;;34.72;15.76
64792;BME280;51226;47.504;19.074;2024-02-21T08:53:53;100994.91;;;36.95;14.07
64792;BME280;51226;47.504;19.074;2024-02-21T08:56:56;100994.66;;;38.50;13.12
64792;BME280;51226;47.504;19.074;2024-02-21T08:59:59;100985.53;;;39.03;12.19
64792;BME280;51226;47.504;19.074;2024-02-21T09:03:02;100987.44;;;39.39;12.15
64792;BME280;51226;47.504;19.074;2024-02-21T09:06:05;100980.13;;;41.06;10.86
64792;BME280;51226;47.504;19.074;2024-02-21T09:09:08;100988.50;;;42.78;9.88
64792;BME280;51226;47.504;19.074;2024-02-21T09:12:12;100980.72;;;43.74;9.27
64792;BME280;51226;47.504;19.074;2024-02-21T09:15:17;100977.47;;;40.70;10.89
64792;BME280;51226;47.504;19.074;2024-02-21T09:18:20;100969.37;;;38.23;12.54
64792;BME280;51226;47.504;19.074;2024-02-21T09:21:26;100970.28;;;35.93;13.73
64792;BME280;51226;47.504;19.074;2024-02-21T09:24:29;100966.75;;;34.08;15.35
64792;BME280;51226;47.504;19.074;2024-02-21T09:27:35;100968.09;;;30.88;17.79
64792;BME280;51226;47.504;19.074;2024-02-21T09:30:38;100968.75;;;28.37;19.97
64792;BME280;51226;47.504;19.074;2024-02-21T09:33:41;100975.25;;;26.14;22.19
64792;BME280;51226;47.504;19.074;2024-02-21T09:36:44;100978.91;;;24.76;24.18
64792;BME280;51226;47.504;19.074;2024-02-21T09:39:47;100977.06;;;25.55;23.18
64792;BME280;51226;47.504;19.074;2024-02-21T09:42:50;100983.56;;;26.49;22.07
64792;BME280;51226;47.504;19.074;2024-02-21T09:45:56;100979.66;;;25.59;23.38
64792;BME280;51226;47.504;19.074;2024-02-21T09:52:04;100976.22;;;24.80;24.39
64792;BME280;51226;47.504;19.074;2024-02-21T09:55:08;100976.66;;;24.33;25.02
64792;BME280;51226;47.504;19.074;2024-02-21T09:58:13;100974.56;;;23.53;26.29
64792;BME280;51226;47.504;19.074;2024-02-21T10:01:16;100979.97;;;23.42;26.57
64792;BME280;51226;47.504;19.074;2024-02-21T10:04:35;100970.22;;;23.37;26.56
64792;BME280;51226;47.504;19.074;2024-02-21T10:07:38;100971.22;;;23.00;26.94
64792;BME280;51226;47.504;19.074;2024-02-21T10:10:45;100975.81;;;22.44;27.62
64792;BME280;51226;47.504;19.074;2024-02-21T10:13:48;100963.41;;;22.09;28.66
64792;BME280;51226;47.504;19.074;2024-02-21T10:16:58;100964.31;;;22.41;28.48
64792;BME280;51226;47.504;19.074;2024-02-21T10:20:08;100952.66;;;22.91;27.33
64792;BME280;51226;47.504;19.074;2024-02-21T10:23:12;100951.72;;;21.10;28.91
64792;BME280;51226;47.504;19.074;2024-02-21T10:26:15;100951.78;;;21.28;29.01
64792;BME280;51226;47.504;19.074;2024-02-21T10:29:18;100943.91;;;21.72;28.94
64792;BME280;51226;47.504;19.074;2024-02-21T10:32:21;100944.78;;;21.49;29.05
64792;BME280;51226;47.504;19.074;2024-02-21T10:35:29;100944.78;;;21.49;28.96
64792;BME280;51226;47.504;19.074;2024-02-21T10:38:32;100935.84;;;21.28;28.96
64792;BME280;51226;47.504;19.074;2024-02-21T10:41:36;100933.91;;;20.83;29.79
64792;BME280;51226;47.504;19.074;2024-02-21T10:44:40;100933.72;;;20.53;30.42
64792;BME280;51226;47.504;19.074;2024-02-21T10:47:45;100928.06;;;20.03;31.22
64792;BME280;51226;47.504;19.074;2024-02-21T10:56:59;100918.66;;;18.09;34.23
64792;BME280;51226;47.504;19.074;2024-02-21T11:00:03;100913.97;;;17.89;34.61
64792;BME280;51226;47.504;19.074;2024-02-21T11:03:10;100909.59;;;17.91;34.81
64792;BME280;51226;47.504;19.074;2024-02-21T11:06:13;100911.34;;;17.91;34.83
64792;BME280;51226;47.504;19.074;2024-02-21T11:09:16;100899.94;;;17.93;34.65
64792;BME280;51226;47.504;19.074;2024-02-21T11:12:22;100894.78;;;18.00;34.41
64792;BME280;51226;47.504;19.074;2024-02-21T11:15:26;100885.72;;;17.35;35.39
64792;BME280;51226;47.504;19.074;2024-02-21T11:18:29;100880.31;;;17.77;34.96
64792;BME280;51226;47.504;19.074;2024-02-21T11:21:36;100863.97;;;18.63;33.98
64792;BME280;51226;47.504;19.074;2024-02-21T11:24:39;100857.34;;;19.85;32.01
64792;BME280;51226;47.504;19.074;2024-02-21T11:27:47;100850.56;;;20.30;30.94
64792;BME280;51226;47.504;19.074;2024-02-21T11:30:51;100861.25;;;20.48;30.39
64792;BME280;51226;47.504;19.074;2024-02-21T11:33:56;100850.37;;;20.01;30.63
64792;BME280;51226;47.504;19.074;2024-02-21T11:37:01;100857.16;;;19.69;31.60
64792;BME280;51226;47.504;19.074;2024-02-21T11:40:04;100861.09;;;19.16;32.16
64792;BME280;51226;47.504;19.074;2024-02-21T11:43:09;100853.25;;;18.52;32.29
64792;BME280;51226;47.504;19.074;2024-02-21T11:46:13;100844.03;;;18.21;32.88
64792;BME280;51226;47.504;19.074;2024-02-21T11:49:16;100844.41;;;17.87;33.39
64792;BME280;51226;47.504;19.074;2024-02-21T11:52:23;100844.34;;;17.84;33.83
64792;BME280;51226;47.504;19.074;2024-02-21T11:55:30;100839.66;;;17.66;33.81
64792;BME280;51226;47.504;19.074;2024-02-21T11:58:33;100842.03;;;17.49;34.37
64792;BME280;51226;47.504;19.074;2024-02-21T12:01:36;100845.78;;;17.13;34.40
64792;BME280;51226;47.504;19.074;2024-02-21T12:04:39;100841.00;;;16.94;34.57
64792;BME280;51226;47.504;19.074;2024-02-21T12:07:42;100832.47;;;16.63;34.70
64792;BME280;51226;47.504;19.074;2024-02-21T12:10:47;100834.19;;;16.20;36.00
64792;BME280;51226;47.504;19.074;2024-02-21T12:14:00;100828.72;;;15.74;36.94
64792;BME280;51226;47.504;19.074;2024-02-21T12:17:04;100827.37;;;15.55;37.61
64792;BME280;51226;47.504;19.074;2024-02-21T12:20:07;100825.12;;;15.70;36.80
64792;BME280;51226;47.504;19.074;2024-02-21T12:23:18;100823.47;;;16.10;36.17
64792;BME280;51226;47.504;19.074;2024-02-21T12:26:21;100816.66;;;16.63;35.82
64792;BME280;51226;47.504;19.074;2024-02-21T12:29:24;100812.22;;;17.03;34.44
64792;BME280;51226;47.504;19.074;2024-02-21T12:32:26;100804.41;;;16.65;34.66
64792;BME280;51226;47.504;19.074;2024-02-21T12:35:30;100811.91;;;16.04;36.31
64792;BME280;51226;47.504;19.074;2024-02-21T12:38:35;100807.31;;;16.35;36.10
64792;BME280;51226;47.504;19.074;2024-02-21T12:41:38;100810.91;;;16.82;35.81
64792;BME280;51226;47.504;19.074;2024-02-21T12:44:40;100812.84;;;16.90;35.62
64792;BME280;51226;47.504;19.074;2024-02-21T12:47:45;100800.81;;;16.60;35.92
64792;BME280;51226;47.504;19.074;2024-02-21T12:50:48;100789.78;;;16.37;36.48
64792;BME280;51226;47.504;19.074;2024-02-21T12:53:51;100798.22;;;16.20;36.18
64792;BME280;51226;47.504;19.074;2024-02-21T12:56:53;100795.09;;;15.97;36.45
64792;BME280;51226;47.504;19.074;2024-02-21T12:59:56;100800.81;;;15.79;36.93
64792;BME280;51226;47.504;19.074;2024-02-21T13:02:59;100784.50;;;15.57;37.24
64792;BME280;51226;47.504;19.074;2024-02-21T13:06:02;100781.28;;;15.33;37.82
64792;BME280;51226;47.504;19.074;2024-02-21T13:09:07;100785.75;;;15.37;37.75
64792;BME280;51226;47.504;19.074;2024-02-21T13:12:14;100771.12;;;15.13;38.21
64792;BME280;51226;47.504;19.074;2024-02-21T13:15:17;100773.50;;;15.03;38.57
64792;BME280;51226;47.504;19.074;2024-02-21T13:18:20;100769.94;;;15.00;38.80
64792;BME280;51226;47.504;19.074;2024-02-21T13:21:23;100764.66;;;14.99;38.94
64792;BME280;51226;47.504;19.074;2024-02-21T13:24:26;100766.44;;;15.01;39.12
64792;BME280;51226;47.504;19.074;2024-02-21T13:27:28;100759.47;;;15.02;39.39
64792;BME280;51226;47.504;19.074;2024-02-21T13:30:31;100753.41;;;15.40;38.79
64792;BME280;51226;47.504;19.074;2024-02-21T13:33:34;100752.19;;;17.40;34.41
64792;BME280;51226;47.504;19.074;2024-02-21T13:36:37;100743.97;;;19.28;31.47
64792;BME280;51226;47.504;19.074;2024-02-21T13:39:40;100734.81;;;20.20;29.97
64792;BME280;51226;47.504;19.074;2024-02-21T13:42:43;100738.41;;;20.23;29.78
64792;BME280;51226;47.504;19.074;2024-02-21T13:45:56;100725.16;;;20.25;29.45
64792;BME280;51226;47.504;19.074;2024-02-21T13:49:03;100720.00;;;20.65;28.42
64792;BME280;51226;47.504;19.074;2024-02-21T13:52:10;100718.06;;;20.22;28.19
64792;BME280;51226;47.504;19.074;2024-02-21T13:55:16;100721.03;;;19.27;29.48
64792;BME280;51226;47.504;19.074;2024-02-21T13:58:18;100714.41;;;18.79;30.44
64792;BME280;51226;47.504;19.074;2024-02-21T14:01:22;100714.00;;;18.40;30.93
64792;BME280;51226;47.504;19.074;2024-02-21T14:04:25;100706.44;;;17.96;31.35
64792;BME280;51226;47.504;19.074;2024-02-21T14:07:28;100725.47;;;17.17;32.48
64792;BME280;51226;47.504;19.074;2024-02-21T14:10:31;100719.38;;;16.72;33.50
64792;BME280;51226;47.504;19.074;2024-02-21T14:13:34;100721.41;;;16.40;34.32
64792;BME280;51226;47.504;19.074;2024-02-21T14:16:37;100724.56;;;16.22;34.54
64792;BME280;51226;47.504;19.074;2024-02-21T14:19:39;100721.03;;;16.20;34.64
64792;BME280;51226;47.504;19.074;2024-02-21T14:22:42;100725.63;;;15.87;35.27
64792;BME280;51226;47.504;19.074;2024-02-21T14:25:45;100717.09;;;15.61;35.72
64792;BME280;51226;47.504;19.074;2024-02-21T14:28:48;100716.94;;;15.55;36.12
64792;BME280;51226;47.504;19.074;2024-02-21T14:31:51;100710.78;;;15.53;36.09
64792;BME280;51226;47.504;19.074;2024-02-21T14:34:55;100710.69;;;15.50;35.78
64792;BME280;51226;47.504;19.074;2024-02-21T14:37:57;100709.50;;;15.35;35.97
64792;BME280;51226;47.504;19.074;2024-02-21T14:41:00;100711.16;;;15.30;36.19
64792;BME280;51226;47.504;19.074;2024-02-21T14:44:03;100701.28;;;15.22;36.50
64792;BME280;51226;47.504;19.074;2024-02-21T14:47:06;100706.50;;;15.20;36.44
64792;BME280;51226;47.504;19.074;2024-02-21T14:50:09;100706.31;;;15.12;36.80
64792;BME280;51226;47.504;19.074;2024-02-21T14:53:13;100706.38;;;15.14;36.78
64792;BME280;51226;47.504;19.074;2024-02-21T14:56:16;100694.72;;;15.04;37.09
64792;BME280;51226;47.504;19.074;2024-02-21T14:59:20;100700.88;;;15.05;37.13
64792;BME280;51226;47.504;19.074;2024-02-21T15:02:35;100697.84;;;14.89;36.79
64792;BME280;51226;47.504;19.074;2024-02-21T15:05:37;100690.44;;;14.73;37.19
64792;BME280;51226;47.504;19.074;2024-02-21T15:08:42;100685.00;;;14.67;37.56
64792;BME280;51226;47.504;19.074;2024-02-21T15:11:45;100685.94;;;14.67;37.73
64792;BME280;51226;47.504;19.074;2024-02-21T15:14:48;100685.75;;;14.61;37.83
64792;BME280;51226;47.504;19.074;2024-02-21T15:17:51;100682.44;;;14.68;37.46
64792;BME280;51226;47.504;19.074;2024-02-21T15:20:54;100685.88;;;14.66;37.51
64792;BME280;51226;47.504;19.074;2024-02-21T15:23:57;100684.87;;;14.60;37.26
64792;BME280;51226;47.504;19.074;2024-02-21T15:27:00;100681.22;;;14.55;37.45
64792;BME280;51226;47.504;19.074;2024-02-21T15:30:03;100684.34;;;14.42;37.74
64792;BME280;51226;47.504;19.074;2024-02-21T15:33:06;100685.69;;;14.27;37.86
64792;BME280;51226;47.504;19.074;2024-02-21T15:36:10;100678.28;;;14.13;38.37
64792;BME280;51226;47.504;19.074;2024-02-21T15:39:13;100674.50;;;14.03;38.57
64792;BME280;51226;47.504;19.074;2024-02-21T15:42:16;100675.31;;;14.00;39.04
64792;BME280;51226;47.504;19.074;2024-02-21T15:45:19;100674.34;;;13.97;39.08
64792;BME280;51226;47.504;19.074;2024-02-21T15:48:22;100666.12;;;14.16;38.59
64792;BME280;51226;47.504;19.074;2024-02-21T15:51:27;100676.69;;;13.87;39.12
64792;BME280;51226;47.504;19.074;2024-02-21T15:54:33;100678.97;;;13.75;39.72
64792;BME280;51226;47.504;19.074;2024-02-21T15:57:40;100673.56;;;13.70;39.88
64792;BME280;51226;47.504;19.074;2024-02-21T16:00:42;100678.06;;;13.75;39.57
64792;BME280;51226;47.504;19.074;2024-02-21T16:03:47;100663.97;;;13.71;39.46